SWA2210 KLAS-KLAX
Flight info
| Callsign | SWA2210 |
|---|---|
| Flight time | 0h 38m |
| Altitude | 28000 |
| Route | RADYR2 BLAQQ SHTNR ANJLL4 |
| Aircraft | B738/M-SDE2E3FGHIRWXY/LB1 |
Departure
| Time | 2026-05-08 01:14 |
|---|---|
| Airport | Harry Reid International Airport (KLAS) |
Arrival
| Time | 2026-05-08 01:52 |
|---|---|
| Airport | Los Angeles International Airport (KLAX) |
| Time | Latitude | Longitude | Altitude | Speed | Heading |
|---|---|---|---|---|---|
| 2026-05-08 00:59 | 36.08011 | -115.14562 | 2187 ft | 0 kts | 277° |
| 2026-05-08 01:05 | 36.08010 | -115.14546 | 2189 ft | 4 kts | 272° |
| 2026-05-08 01:06 | 36.08012 | -115.14514 | 2188 ft | 4 kts | 248° |
| 2026-05-08 01:06 | 36.08026 | -115.14490 | 2189 ft | 4 kts | 206° |
| 2026-05-08 01:06 | 36.08040 | -115.14485 | 2190 ft | 0 kts | 180° |
| 2026-05-08 01:08 | 36.08013 | -115.14485 | 2189 ft | 15 kts | 179° |
| 2026-05-08 01:08 | 36.07923 | -115.14484 | 2187 ft | 12 kts | 180° |
| 2026-05-08 01:09 | 36.07846 | -115.14460 | 2187 ft | 12 kts | 133° |
| 2026-05-08 01:09 | 36.07828 | -115.14339 | 2188 ft | 18 kts | 91° |
| 2026-05-08 01:09 | 36.07828 | -115.14152 | 2190 ft | 25 kts | 90° |
| 2026-05-08 01:09 | 36.07828 | -115.13910 | 2190 ft | 30 kts | 90° |
| 2026-05-08 01:10 | 36.07827 | -115.13636 | 2189 ft | 33 kts | 90° |
| 2026-05-08 01:10 | 36.07828 | -115.13340 | 2190 ft | 35 kts | 90° |
| 2026-05-08 01:10 | 36.07828 | -115.13053 | 2191 ft | 33 kts | 90° |
| 2026-05-08 01:10 | 36.07828 | -115.12784 | 2191 ft | 30 kts | 90° |
| 2026-05-08 01:11 | 36.07828 | -115.12534 | 2187 ft | 28 kts | 89° |
| 2026-05-08 01:11 | 36.07829 | -115.12324 | 2187 ft | 18 kts | 90° |
| 2026-05-08 01:11 | 36.07786 | -115.12203 | 2188 ft | 15 kts | 129° |
| 2026-05-08 01:11 | 36.07712 | -115.12125 | 2189 ft | 14 kts | 171° |
| 2026-05-08 01:12 | 36.07646 | -115.12140 | 2190 ft | 7 kts | 229° |
| 2026-05-08 01:12 | 36.07643 | -115.12169 | 2189 ft | 0 kts | 271° |
| 2026-05-08 01:13 | 36.07643 | -115.12185 | 2189 ft | 12 kts | 270° |
| 2026-05-08 01:13 | 36.07642 | -115.12602 | 2188 ft | 84 kts | 270° |
| 2026-05-08 01:13 | 36.07641 | -115.13591 | 2189 ft | 145 kts | 270° |
| 2026-05-08 01:13 | 36.07644 | -115.15031 | 2404 ft | 176 kts | 270° |
| 2026-05-08 01:14 | 36.07652 | -115.16489 | 3309 ft | 167 kts | 270° |
| 2026-05-08 01:14 | 36.07657 | -115.17938 | 4016 ft | 169 kts | 270° |
| 2026-05-08 01:14 | 36.07669 | -115.19476 | 4357 ft | 196 kts | 270° |
| 2026-05-08 01:14 | 36.07571 | -115.21262 | 4576 ft | 220 kts | 261° |
| 2026-05-08 01:15 | 36.07292 | -115.23209 | 4794 ft | 240 kts | 255° |
| 2026-05-08 01:15 | 36.06516 | -115.25063 | 5235 ft | 248 kts | 233° |
| 2026-05-08 01:15 | 36.05288 | -115.26610 | 5584 ft | 263 kts | 213° |
| 2026-05-08 01:15 | 36.03549 | -115.27514 | 5985 ft | 277 kts | 201° |
| 2026-05-08 01:16 | 36.01719 | -115.28309 | 6772 ft | 278 kts | 201° |
| 2026-05-08 01:16 | 35.99914 | -115.29108 | 7575 ft | 280 kts | 202° |
| 2026-05-08 01:16 | 35.98026 | -115.29820 | 8299 ft | 287 kts | 195° |
| 2026-05-08 01:16 | 35.96050 | -115.30327 | 9004 ft | 292 kts | 193° |
| 2026-05-08 01:17 | 35.94039 | -115.30787 | 9828 ft | 296 kts | 193° |
| 2026-05-08 01:17 | 35.91994 | -115.31251 | 10454 ft | 305 kts | 193° |
| 2026-05-08 01:17 | 35.89818 | -115.31757 | 10643 ft | 331 kts | 193° |
| 2026-05-08 01:17 | 35.87473 | -115.32313 | 10813 ft | 354 kts | 193° |
| 2026-05-08 01:18 | 35.84989 | -115.32910 | 11057 ft | 371 kts | 193° |
| 2026-05-08 01:18 | 35.82420 | -115.33533 | 11556 ft | 380 kts | 192° |
| 2026-05-08 01:18 | 35.79839 | -115.34161 | 12142 ft | 385 kts | 192° |
| 2026-05-08 01:18 | 35.77203 | -115.34804 | 12783 ft | 389 kts | 192° |
| 2026-05-08 01:19 | 35.74526 | -115.35458 | 13405 ft | 393 kts | 191° |
| 2026-05-08 01:19 | 35.71825 | -115.36118 | 14014 ft | 397 kts | 191° |
| 2026-05-08 01:19 | 35.69101 | -115.36784 | 14599 ft | 400 kts | 191° |
| 2026-05-08 01:19 | 35.66354 | -115.37456 | 15195 ft | 403 kts | 191° |
| 2026-05-08 01:20 | 35.63625 | -115.38122 | 15796 ft | 406 kts | 191° |
| 2026-05-08 01:20 | 35.60844 | -115.38757 | 16373 ft | 409 kts | 187° |
| 2026-05-08 01:20 | 35.57979 | -115.38769 | 16919 ft | 413 kts | 175° |
| 2026-05-08 01:20 | 35.55100 | -115.38474 | 17501 ft | 417 kts | 175° |
| 2026-05-08 01:21 | 35.52196 | -115.38191 | 18049 ft | 421 kts | 175° |
| 2026-05-08 01:21 | 35.49255 | -115.37955 | 18531 ft | 425 kts | 176° |
| 2026-05-08 01:21 | 35.46285 | -115.37756 | 18992 ft | 429 kts | 179° |
| 2026-05-08 01:21 | 35.43320 | -115.38208 | 19445 ft | 433 kts | 197° |
| 2026-05-08 01:22 | 35.40555 | -115.39689 | 19961 ft | 434 kts | 208° |
| 2026-05-08 01:22 | 35.37875 | -115.41441 | 20444 ft | 438 kts | 209° |
| 2026-05-08 01:22 | 35.35181 | -115.43229 | 20880 ft | 442 kts | 209° |
| 2026-05-08 01:22 | 35.32458 | -115.45023 | 21319 ft | 446 kts | 208° |
| 2026-05-08 01:23 | 35.29702 | -115.46815 | 21776 ft | 450 kts | 208° |
| 2026-05-08 01:23 | 35.26923 | -115.48603 | 22230 ft | 452 kts | 208° |
| 2026-05-08 01:23 | 35.24122 | -115.50393 | 22662 ft | 456 kts | 208° |
| 2026-05-08 01:23 | 35.21301 | -115.52192 | 23082 ft | 459 kts | 208° |
| 2026-05-08 01:24 | 35.18494 | -115.53980 | 23470 ft | 462 kts | 207° |
| 2026-05-08 01:24 | 35.15627 | -115.55807 | 23808 ft | 465 kts | 207° |
| 2026-05-08 01:24 | 35.12774 | -115.57703 | 24159 ft | 467 kts | 213° |
| 2026-05-08 01:24 | 35.10308 | -115.60282 | 24512 ft | 467 kts | 228° |
| 2026-05-08 01:25 | 35.08095 | -115.63190 | 24909 ft | 468 kts | 228° |
| 2026-05-08 01:25 | 35.05878 | -115.66121 | 25235 ft | 471 kts | 228° |
| 2026-05-08 01:25 | 35.03669 | -115.69017 | 25547 ft | 473 kts | 228° |
| 2026-05-08 01:25 | 35.01405 | -115.71951 | 25864 ft | 476 kts | 227° |
| 2026-05-08 01:26 | 34.99118 | -115.74886 | 26180 ft | 478 kts | 227° |
| 2026-05-08 01:26 | 34.96813 | -115.77823 | 26505 ft | 480 kts | 227° |
| 2026-05-08 01:26 | 34.94492 | -115.80772 | 26808 ft | 482 kts | 227° |
| 2026-05-08 01:26 | 34.92155 | -115.83736 | 27097 ft | 485 kts | 227° |
| 2026-05-08 01:27 | 34.89810 | -115.86711 | 27369 ft | 488 kts | 227° |
| 2026-05-08 01:27 | 34.87452 | -115.89700 | 27732 ft | 488 kts | 227° |
| 2026-05-08 01:27 | 34.85128 | -115.92645 | 27894 ft | 490 kts | 227° |
| 2026-05-08 01:27 | 34.82763 | -115.95642 | 27884 ft | 491 kts | 227° |
| 2026-05-08 01:28 | 34.80402 | -115.98630 | 27892 ft | 487 kts | 227° |
| 2026-05-08 01:28 | 34.78060 | -116.01591 | 27880 ft | 484 kts | 227° |
| 2026-05-08 01:28 | 34.75724 | -116.04549 | 27889 ft | 485 kts | 227° |
| 2026-05-08 01:28 | 34.73394 | -116.07513 | 27892 ft | 485 kts | 227° |
| 2026-05-08 01:29 | 34.71052 | -116.10499 | 27893 ft | 486 kts | 227° |
| 2026-05-08 01:29 | 34.68717 | -116.13474 | 27891 ft | 487 kts | 227° |
| 2026-05-08 01:29 | 34.66401 | -116.16424 | 27887 ft | 487 kts | 227° |
| 2026-05-08 01:29 | 34.64059 | -116.19402 | 27892 ft | 488 kts | 227° |
| 2026-05-08 01:30 | 34.61712 | -116.22383 | 27893 ft | 488 kts | 227° |
| 2026-05-08 01:30 | 34.59360 | -116.25365 | 27906 ft | 488 kts | 227° |
| 2026-05-08 01:30 | 34.57005 | -116.28349 | 27925 ft | 488 kts | 227° |
| 2026-05-08 01:30 | 34.54657 | -116.31323 | 27919 ft | 487 kts | 227° |
| 2026-05-08 01:31 | 34.52313 | -116.34287 | 27909 ft | 486 kts | 227° |
| 2026-05-08 01:31 | 34.49978 | -116.37239 | 27920 ft | 484 kts | 227° |
| 2026-05-08 01:31 | 34.47650 | -116.40180 | 27669 ft | 484 kts | 227° |
| 2026-05-08 01:31 | 34.45330 | -116.43108 | 27191 ft | 477 kts | 227° |
| 2026-05-08 01:32 | 34.43070 | -116.45958 | 26638 ft | 473 kts | 227° |
| 2026-05-08 01:32 | 34.41006 | -116.49016 | 26057 ft | 467 kts | 241° |
| 2026-05-08 01:32 | 34.39557 | -116.52495 | 25554 ft | 460 kts | 246° |
| 2026-05-08 01:32 | 34.38195 | -116.56002 | 24991 ft | 457 kts | 246° |
| 2026-05-08 01:33 | 34.36828 | -116.59469 | 24457 ft | 454 kts | 246° |
| 2026-05-08 01:33 | 34.35452 | -116.62857 | 24272 ft | 442 kts | 245° |
| 2026-05-08 01:33 | 34.34092 | -116.66153 | 24062 ft | 432 kts | 245° |
| 2026-05-08 01:33 | 34.32760 | -116.69378 | 23693 ft | 427 kts | 245° |
| 2026-05-08 01:34 | 34.31453 | -116.72609 | 23212 ft | 425 kts | 246° |
| 2026-05-08 01:34 | 34.30165 | -116.75822 | 22716 ft | 423 kts | 246° |
| 2026-05-08 01:34 | 34.28888 | -116.79010 | 22245 ft | 420 kts | 246° |
| 2026-05-08 01:34 | 34.27617 | -116.82180 | 21781 ft | 417 kts | 246° |
| 2026-05-08 01:35 | 34.26356 | -116.85313 | 21327 ft | 410 kts | 246° |
| 2026-05-08 01:35 | 34.25125 | -116.88364 | 20885 ft | 399 kts | 245° |
| 2026-05-08 01:35 | 34.23938 | -116.91306 | 20475 ft | 389 kts | 245° |
| 2026-05-08 01:35 | 34.22749 | -116.94246 | 20064 ft | 381 kts | 245° |
| 2026-05-08 01:36 | 34.21606 | -116.97071 | 19662 ft | 375 kts | 245° |
| 2026-05-08 01:36 | 34.20540 | -116.99961 | 19286 ft | 386 kts | 251° |
| 2026-05-08 01:36 | 34.19681 | -117.03074 | 18824 ft | 389 kts | 255° |
| 2026-05-08 01:36 | 34.18915 | -117.06177 | 18401 ft | 381 kts | 255° |
| 2026-05-08 01:37 | 34.18147 | -117.09217 | 17939 ft | 378 kts | 254° |
| 2026-05-08 01:37 | 34.17347 | -117.12241 | 17485 ft | 376 kts | 253° |
| 2026-05-08 01:37 | 34.16537 | -117.15236 | 17079 ft | 373 kts | 253° |
| 2026-05-08 01:37 | 34.15723 | -117.18201 | 16660 ft | 371 kts | 253° |
| 2026-05-08 01:38 | 34.14918 | -117.21116 | 16226 ft | 369 kts | 253° |
| 2026-05-08 01:38 | 34.14108 | -117.24053 | 15809 ft | 367 kts | 252° |
| 2026-05-08 01:38 | 34.13304 | -117.26966 | 15402 ft | 365 kts | 252° |
| 2026-05-08 01:38 | 34.12504 | -117.29870 | 14995 ft | 363 kts | 252° |
| 2026-05-08 01:39 | 34.11708 | -117.32756 | 14594 ft | 362 kts | 252° |
| 2026-05-08 01:39 | 34.10912 | -117.35637 | 14192 ft | 360 kts | 252° |
| 2026-05-08 01:39 | 34.10135 | -117.38512 | 13800 ft | 358 kts | 253° |
| 2026-05-08 01:39 | 34.09418 | -117.41377 | 13425 ft | 355 kts | 254° |
| 2026-05-08 01:40 | 34.08717 | -117.44228 | 13060 ft | 352 kts | 254° |
| 2026-05-08 01:40 | 34.08018 | -117.47045 | 12716 ft | 348 kts | 254° |
| 2026-05-08 01:40 | 34.07333 | -117.49787 | 12391 ft | 344 kts | 254° |
| 2026-05-08 01:40 | 34.06638 | -117.52531 | 12051 ft | 341 kts | 254° |
| 2026-05-08 01:41 | 34.05941 | -117.55254 | 11733 ft | 337 kts | 254° |
| 2026-05-08 01:41 | 34.05252 | -117.57942 | 11402 ft | 332 kts | 254° |
| 2026-05-08 01:41 | 34.04577 | -117.60577 | 11087 ft | 326 kts | 255° |
| 2026-05-08 01:41 | 34.03914 | -117.63169 | 10785 ft | 322 kts | 255° |
| 2026-05-08 01:42 | 34.03256 | -117.65737 | 10483 ft | 319 kts | 255° |
| 2026-05-08 01:42 | 34.02606 | -117.68267 | 10163 ft | 310 kts | 255° |
| 2026-05-08 01:42 | 34.02035 | -117.70726 | 9837 ft | 299 kts | 262° |
| 2026-05-08 01:42 | 34.01766 | -117.73167 | 9497 ft | 290 kts | 266° |
| 2026-05-08 01:43 | 34.01576 | -117.75543 | 9179 ft | 288 kts | 266° |
| 2026-05-08 01:43 | 34.01383 | -117.77945 | 8836 ft | 287 kts | 266° |
| 2026-05-08 01:43 | 34.01173 | -117.80339 | 8513 ft | 286 kts | 265° |
| 2026-05-08 01:43 | 34.00949 | -117.82719 | 8186 ft | 286 kts | 265° |
| 2026-05-08 01:44 | 34.00720 | -117.85094 | 7863 ft | 284 kts | 265° |
| 2026-05-08 01:44 | 34.00491 | -117.87439 | 7534 ft | 278 kts | 265° |
| 2026-05-08 01:44 | 34.00266 | -117.89733 | 7239 ft | 274 kts | 264° |
| 2026-05-08 01:44 | 34.00043 | -117.92008 | 6932 ft | 273 kts | 265° |
| 2026-05-08 01:45 | 33.99819 | -117.94273 | 6641 ft | 272 kts | 264° |
| 2026-05-08 01:45 | 33.99598 | -117.96519 | 6328 ft | 269 kts | 264° |
| 2026-05-08 01:45 | 33.99452 | -117.97998 | 6140 ft | 268 kts | 264° |
| 2026-05-08 01:45 | 33.99156 | -118.00988 | 5669 ft | 269 kts | 264° |
| 2026-05-08 01:46 | 33.98937 | -118.03203 | 5342 ft | 270 kts | 264° |
| 2026-05-08 01:46 | 33.98732 | -118.05454 | 5000 ft | 271 kts | 265° |
| 2026-05-08 01:46 | 33.98552 | -118.07357 | 4735 ft | 265 kts | 264° |
| 2026-05-08 01:46 | 33.98334 | -118.09522 | 4444 ft | 256 kts | 264° |
| 2026-05-08 01:47 | 33.98187 | -118.10948 | 4253 ft | 251 kts | 264° |
| 2026-05-08 01:47 | 33.97981 | -118.12966 | 4073 ft | 238 kts | 264° |
| 2026-05-08 01:47 | 33.97797 | -118.14882 | 3997 ft | 223 kts | 264° |
| 2026-05-08 01:48 | 33.97447 | -118.18496 | 3587 ft | 214 kts | 264° |
| 2026-05-08 01:48 | 33.97265 | -118.20247 | 3339 ft | 207 kts | 264° |
| 2026-05-08 01:48 | 33.97087 | -118.21945 | 3068 ft | 202 kts | 263° |
| 2026-05-08 01:48 | 33.96913 | -118.23626 | 2813 ft | 201 kts | 263° |
| 2026-05-08 01:49 | 33.96743 | -118.25284 | 2555 ft | 197 kts | 263° |
| 2026-05-08 01:49 | 33.96576 | -118.26904 | 2294 ft | 193 kts | 263° |
| 2026-05-08 01:49 | 33.96412 | -118.28487 | 2044 ft | 188 kts | 263° |
| 2026-05-08 01:49 | 33.96252 | -118.30035 | 1801 ft | 183 kts | 263° |
| 2026-05-08 01:50 | 33.96098 | -118.31528 | 1552 ft | 176 kts | 263° |
| 2026-05-08 01:50 | 33.95950 | -118.32971 | 1362 ft | 177 kts | 263° |
| 2026-05-08 01:50 | 33.95802 | -118.34420 | 1121 ft | 168 kts | 263° |
| 2026-05-08 01:50 | 33.95666 | -118.35748 | 880 ft | 152 kts | 262° |
| 2026-05-08 01:51 | 33.95540 | -118.36975 | 690 ft | 144 kts | 262° |
| 2026-05-08 01:51 | 33.95420 | -118.38157 | 493 ft | 141 kts | 261° |
| 2026-05-08 01:51 | 33.95299 | -118.39325 | 308 ft | 140 kts | 262° |
| 2026-05-08 01:51 | 33.95181 | -118.40498 | 121 ft | 140 kts | 260° |
| 2026-05-08 01:52 | 33.95069 | -118.41534 | 107 ft | 100 kts | 262° |
| 2026-05-08 01:52 | 33.95014 | -118.42107 | 107 ft | 45 kts | 263° |
| 2026-05-08 01:52 | 33.94948 | -118.42355 | 106 ft | 26 kts | 236° |
| 2026-05-08 01:52 | 33.94865 | -118.42464 | 103 ft | 15 kts | 214° |
| 2026-05-08 01:53 | 33.94757 | -118.42488 | 108 ft | 17 kts | 176° |
| 2026-05-08 01:53 | 33.94662 | -118.42433 | 100 ft | 17 kts | 104° |
| 2026-05-08 01:53 | 33.94679 | -118.42284 | 98 ft | 23 kts | 80° |
| 2026-05-08 01:53 | 33.94702 | -118.42051 | 99 ft | 32 kts | 83° |
| 2026-05-08 01:54 | 33.94728 | -118.41776 | 100 ft | 34 kts | 83° |
| 2026-05-08 01:54 | 33.94760 | -118.41492 | 101 ft | 33 kts | 80° |
| 2026-05-08 01:54 | 33.94799 | -118.41226 | 99 ft | 31 kts | 82° |
| 2026-05-08 01:54 | 33.94827 | -118.40964 | 100 ft | 31 kts | 82° |
| 2026-05-08 01:55 | 33.94852 | -118.40711 | 99 ft | 30 kts | 83° |
| 2026-05-08 01:55 | 33.94876 | -118.40475 | 97 ft | 23 kts | 83° |
| 2026-05-08 01:55 | 33.94889 | -118.40343 | 99 ft | 11 kts | 89° |
| 2026-05-08 01:55 | 33.94840 | -118.40282 | 97 ft | 11 kts | 142° |
| 2026-05-08 01:56 | 33.94830 | -118.40197 | 95 ft | 8 kts | 83° |
| 2026-05-08 01:56 | 33.94835 | -118.40143 | 95 ft | 5 kts | 83° |
| 2026-05-08 01:56 | 33.94810 | -118.40123 | 96 ft | 4 kts | 185° |
| 2026-05-08 01:56 | 33.94791 | -118.40125 | 96 ft | 0 kts | 185° |
| 2026-05-08 01:57 | 33.94788 | -118.40125 | 94 ft | 0 kts | 185° |